Time;durP1;ratioP1;P1;durP2;ratioP2;P2;SDS_P1;SDS_P2;PMS_P1;PMS_P2;Temp;Humidity;BMP_temperature;BMP_pressure;BME280_temperature;BME280_humidity;BME280_pressure;Samples;Min_cycle;Max_cycle;Signal;HPM_P1;HPM_P2
2021/07/24 00:00:55;;;;;;;;;;;21.50;74.60;;;;;;4331094;33;44168;-88
2021/07/24 00:03:23;;;;;;;;;;;21.60;74.80;;;;;;4331545;33;44595;-88
2021/07/24 00:05:51;;;;;;;;;;;21.60;74.80;;;;;;4331203;33;44209;-88
2021/07/24 00:08:18;;;;;;;;;;;21.60;74.80;;;;;;4332509;33;44955;-88
2021/07/24 00:10:45;;;;;;;;;;;21.50;75.00;;;;;;4330930;33;45126;-88
2021/07/24 00:13:15;;;;;;;;;;;21.50;75.10;;;;;;4331442;33;43482;-88
2021/07/24 00:15:45;;;;;;;;;;;21.50;75.20;;;;;;4343089;33;43969;-88
2021/07/24 00:18:12;;;;;;;;;;;21.50;75.10;;;;;;4343709;33;44856;-88
2021/07/24 00:20:43;;;;;;;;;;;21.50;75.30;;;;;;4331308;33;44053;-87
2021/07/24 00:23:11;;;;;;;;;;;21.50;75.30;;;;;;4343580;33;44059;-89
2021/07/24 00:25:41;;;;;;;;;;;21.50;75.30;;;;;;4331579;33;44736;-89
2021/07/24 00:28:08;;;;;;;;;;;21.50;75.30;;;;;;4332655;33;44838;-89
2021/07/24 00:30:43;;;;;;;;;;;21.50;75.40;;;;;;4343132;33;44779;-89
2021/07/24 00:33:12;;;;;;;;;;;21.50;75.50;;;;;;4331486;33;45540;-89
2021/07/24 00:35:43;;;;;;;;;;;21.50;75.70;;;;;;4343711;33;44743;-89
2021/07/24 00:38:10;;;;;;;;;;;21.40;75.70;;;;;;4331519;33;44007;-90
2021/07/24 00:40:40;;;;;;;;;;;21.40;75.80;;;;;;4331108;33;43502;-89
2021/07/24 00:43:09;;;;;;;;;;;21.40;75.70;;;;;;4331391;33;45708;-89
2021/07/24 00:45:49;;;;;;;;;;;21.30;75.60;;;;;;4330802;33;43603;-88
2021/07/24 00:48:22;;;;;;;;;;;21.30;75.80;;;;;;4331050;33;45733;-89
2021/07/24 00:50:54;;;;;;;;;;;21.30;76.10;;;;;;4343233;33;44614;-89
2021/07/24 00:53:23;;;;;;;;;;;21.30;76.20;;;;;;4330872;33;44486;-89
2021/07/24 00:55:50;;;;;;;;;;;21.30;76.10;;;;;;4343413;33;43379;-89
2021/07/24 00:58:30;;;;;;;;;;;21.30;76.30;;;;;;4331050;33;45559;-88
2021/07/24 01:01:02;;;;;;;;;;;21.30;76.10;;;;;;4330837;33;43084;-89
2021/07/24 01:03:30;;;;;;;;;;;21.20;76.00;;;;;;4343026;33;44260;-89
2021/07/24 01:06:01;;;;;;;;;;;21.20;76.00;;;;;;4331652;33;20044;-89
2021/07/24 01:08:32;;;;;;;;;;;21.20;76.10;;;;;;4330445;33;42477;-89
2021/07/24 01:11:03;;;;;;;;;;;21.10;76.20;;;;;;4343033;33;45697;-89
2021/07/24 01:13:32;;;;;;;;;;;21.10;76.20;;;;;;4330894;33;45332;-89
2021/07/24 01:16:02;;;;;;;;;;;21.00;76.10;;;;;;4331619;33;42701;-88
2021/07/24 01:18:31;;;;;;;;;;;21.00;76.30;;;;;;4330510;33;44001;-88
2021/07/24 01:21:00;;;;;;;;;;;21.00;76.30;;;;;;4331160;33;44293;-88
2021/07/24 01:23:30;;;;;;;;;;;21.00;76.50;;;;;;4342720;33;45731;-88
2021/07/24 01:26:00;;;;;;;;;;;20.90;76.50;;;;;;4330012;33;45186;-88
2021/07/24 01:28:31;;;;;;;;;;;20.90;76.60;;;;;;4329867;33;43493;-88
2021/07/24 01:31:00;;;;;;;;;;;20.90;76.70;;;;;;4330310;33;44453;-88
2021/07/24 01:33:27;;;;;;;;;;;20.80;76.80;;;;;;4330006;33;44231;-89
2021/07/24 01:35:57;;;;;;;;;;;20.80;76.90;;;;;;4330378;33;45785;-89
2021/07/24 01:38:24;;;;;;;;;;;20.80;77.00;;;;;;4331096;33;45765;-88
2021/07/24 01:40:51;;;;;;;;;;;20.70;77.00;;;;;;4330200;33;45859;-88
2021/07/24 01:43:19;;;;;;;;;;;20.70;77.10;;;;;;4330456;33;44053;-87
2021/07/24 01:45:46;;;;;;;;;;;20.70;77.20;;;;;;4342567;33;45620;-88
2021/07/24 01:48:28;;;;;;;;;;;20.70;77.30;;;;;;4331398;33;44124;-89
2021/07/24 01:53:43;;;;;;;;;;;20.70;77.50;;;;;;4331549;33;44136;-89
2021/07/24 01:56:13;;;;;;;;;;;20.70;77.60;;;;;;4330492;33;43773;-89
2021/07/24 01:58:40;;;;;;;;;;;20.70;77.80;;;;;;4342292;33;44645;-90
2021/07/24 02:01:10;;;;;;;;;;;20.70;77.90;;;;;;4330685;33;44540;-93
2021/07/24 02:03:46;;;;;;;;;;;20.70;78.00;;;;;;4331215;33;44218;-92
2021/07/24 02:06:14;;;;;;;;;;;20.70;78.00;;;;;;4343265;33;43952;-92
2021/07/24 02:08:46;;;;;;;;;;;20.70;78.10;;;;;;4330940;33;44621;-91
2021/07/24 02:11:13;;;;;;;;;;;20.70;78.10;;;;;;4343508;33;44025;-92
2021/07/24 02:13:41;;;;;;;;;;;20.70;78.20;;;;;;4330826;33;43593;-93
2021/07/24 02:16:10;;;;;;;;;;;20.70;78.30;;;;;;4331003;33;43137;-91
2021/07/24 02:18:38;;;;;;;;;;;20.70;78.30;;;;;;4343016;33;42471;-91
2021/07/24 02:21:05;;;;;;;;;;;20.70;78.30;;;;;;4330899;33;44276;-91
2021/07/24 02:23:32;;;;;;;;;;;20.70;78.40;;;;;;4330646;33;45629;-91
2021/07/24 02:26:01;;;;;;;;;;;20.70;78.40;;;;;;4342971;33;43909;-91
2021/07/24 02:28:28;;;;;;;;;;;20.70;78.60;;;;;;4331577;33;43228;-91
2021/07/24 02:30:55;;;;;;;;;;;20.70;78.70;;;;;;4331122;33;44331;-91
2021/07/24 02:33:25;;;;;;;;;;;20.70;78.70;;;;;;4331818;33;44610;-90
2021/07/24 02:35:55;;;;;;;;;;;20.70;79.60;;;;;;4330863;33;44751;-90
2021/07/24 02:38:25;;;;;;;;;;;20.70;78.80;;;;;;4332527;33;20414;-90
2021/07/24 02:40:52;;;;;;;;;;;20.70;78.90;;;;;;4342778;33;43719;-91
2021/07/24 02:43:25;;;;;;;;;;;20.70;79.00;;;;;;4330522;33;45460;-92
2021/07/24 02:45:53;;;;;;;;;;;20.70;79.00;;;;;;4331877;33;44808;-91
2021/07/24 02:48:26;;;;;;;;;;;20.70;79.10;;;;;;4342556;33;44516;-90
2021/07/24 02:50:53;;;;;;;;;;;20.70;79.10;;;;;;4331653;33;45132;-91
2021/07/24 02:53:23;;;;;;;;;;;20.70;79.00;;;;;;4342254;33;44781;-90
2021/07/24 02:55:50;;;;;;;;;;;20.70;79.00;;;;;;4330411;33;45702;-90
2021/07/24 02:58:19;;;;;;;;;;;20.70;79.00;;;;;;4330329;33;45198;-89
2021/07/24 03:00:47;;;;;;;;;;;20.60;78.90;;;;;;4342437;33;44818;-92
2021/07/24 03:03:16;;;;;;;;;;;20.60;79.10;;;;;;4330287;33;44273;-91
2021/07/24 03:05:44;;;;;;;;;;;20.60;79.30;;;;;;4329662;33;44472;-90
2021/07/24 03:08:14;;;;;;;;;;;20.60;79.40;;;;;;4341971;33;44850;-90
2021/07/24 03:10:41;;;;;;;;;;;20.60;79.50;;;;;;4330938;33;44806;-91
2021/07/24 03:13:10;;;;;;;;;;;20.50;79.60;;;;;;4332746;33;44974;-90
2021/07/24 03:15:37;;;;;;;;;;;20.50;79.90;;;;;;4334416;33;44489;-90
2021/07/24 03:18:04;;;;;;;;;;;20.60;80.10;;;;;;4333502;33;43413;-92
2021/07/24 03:20:37;;;;;;;;;;;20.50;80.10;;;;;;4334319;33;45709;-91
2021/07/24 03:23:06;;;;;;;;;;;20.60;80.20;;;;;;4345463;33;44204;-91
2021/07/24 03:25:36;;;;;;;;;;;20.60;80.30;;;;;;4333301;33;44238;-91
2021/07/24 03:28:05;;;;;;;;;;;20.60;80.10;;;;;;4345201;33;44778;-89
2021/07/24 03:30:35;;;;;;;;;;;20.60;80.00;;;;;;4332823;33;44605;-90
2021/07/24 03:33:05;;;;;;;;;;;20.50;80.00;;;;;;4332327;33;44602;-90
2021/07/24 03:35:34;;;;;;;;;;;20.50;80.10;;;;;;4344330;33;44719;-89
2021/07/24 03:38:05;;;;;;;;;;;20.50;80.30;;;;;;4333107;33;45700;-88
2021/07/24 03:40:36;;;;;;;;;;;20.50;80.30;;;;;;4332485;33;45853;-89
2021/07/24 03:43:03;;;;;;;;;;;20.40;80.30;;;;;;4344529;33;45603;-89
2021/07/24 03:45:33;;;;;;;;;;;20.40;80.50;;;;;;4332165;33;44113;-90
2021/07/24 03:48:01;;;;;;;;;;;20.40;80.60;;;;;;4332185;33;43247;-89
2021/07/24 03:50:29;;;;;;;;;;;20.40;80.60;;;;;;4344255;33;44267;-89
2021/07/24 03:52:56;;;;;;;;;;;20.30;80.70;;;;;;4332297;33;44799;-90
2021/07/24 03:55:23;;;;;;;;;;;20.30;80.80;;;;;;4332441;33;43912;-89
2021/07/24 03:57:52;;;;;;;;;;;20.30;80.90;;;;;;4345099;33;43237;-93
2021/07/24 04:00:23;;;;;;;;;;;20.30;81.00;;;;;;4332896;33;44156;-91
2021/07/24 04:02:51;;;;;;;;;;;20.30;81.20;;;;;;4332940;33;44314;-91
2021/07/24 04:05:18;;;;;;;;;;;20.30;81.20;;;;;;4344974;33;43893;-90
2021/07/24 04:07:45;;;;;;;;;;;20.40;81.20;;;;;;4333286;33;45259;-91
2021/07/24 04:10:13;;;;;;;;;;;20.40;81.20;;;;;;4332432;33;45725;-93
2021/07/24 04:12:41;;;;;;;;;;;20.40;81.30;;;;;;4345084;33;44089;-91
2021/07/24 04:15:08;;;;;;;;;;;20.40;81.40;;;;;;4332605;33;44855;-91
2021/07/24 04:17:36;;;;;;;;;;;20.40;81.50;;;;;;4332405;33;44779;-91
2021/07/24 04:20:03;;;;;;;;;;;20.40;81.50;;;;;;4344723;33;44280;-91
2021/07/24 04:22:31;;;;;;;;;;;20.40;81.60;;;;;;4344003;33;44678;-91
2021/07/24 04:24:58;;;;;;;;;;;20.40;81.60;;;;;;4332574;33;43739;-92
2021/07/24 04:27:25;;;;;;;;;;;20.40;81.70;;;;;;4344709;33;42250;-91
2021/07/24 04:29:52;;;;;;;;;;;20.40;81.70;;;;;;4332925;33;44197;-91
2021/07/24 04:32:19;;;;;;;;;;;20.50;81.90;;;;;;4333633;33;44913;-93
2021/07/24 04:34:49;;;;;;;;;;;20.40;81.90;;;;;;4344843;33;43860;-91
2021/07/24 04:37:16;;;;;;;;;;;20.50;82.00;;;;;;4332254;33;45482;-91
2021/07/24 04:39:44;;;;;;;;;;;20.50;82.10;;;;;;4333058;33;44806;-92
2021/07/24 04:42:13;;;;;;;;;;;20.40;82.10;;;;;;4344706;33;44387;-92
2021/07/24 04:44:40;;;;;;;;;;;20.50;82.20;;;;;;4332634;33;45464;-91
2021/07/24 04:47:07;;;;;;;;;;;20.50;82.40;;;;;;4332360;33;44732;-91
2021/07/24 04:49:38;;;;;;;;;;;20.50;82.40;;;;;;4344634;33;44808;-91
2021/07/24 04:52:05;;;;;;;;;;;20.50;82.50;;;;;;4332641;33;46054;-91
2021/07/24 04:54:35;;;;;;;;;;;20.50;82.50;;;;;;4343893;33;44234;-91
2021/07/24 04:57:02;;;;;;;;;;;20.50;82.50;;;;;;4344427;33;45477;-91
2021/07/24 04:59:29;;;;;;;;;;;20.50;82.60;;;;;;4332869;33;45278;-92
2021/07/24 05:01:59;;;;;;;;;;;20.50;82.60;;;;;;4332368;33;43109;-91
2021/07/24 05:04:27;;;;;;;;;;;20.50;82.60;;;;;;4343620;33;43225;-92
2021/07/24 05:06:55;;;;;;;;;;;20.50;82.70;;;;;;4331859;33;45723;-91
2021/07/24 05:09:25;;;;;;;;;;;20.50;82.80;;;;;;4332602;33;43445;-91
2021/07/24 05:11:52;;;;;;;;;;;20.50;82.90;;;;;;4319975;33;44277;-92
2021/07/24 05:14:19;;;;;;;;;;;20.50;82.90;;;;;;4344100;33;42720;-91
2021/07/24 05:16:49;;;;;;;;;;;20.50;83.00;;;;;;4332889;33;44740;-91
2021/07/24 05:19:19;;;;;;;;;;;20.50;83.10;;;;;;4343832;33;44778;-91
2021/07/24 05:21:46;;;;;;;;;;;20.50;83.10;;;;;;4332477;33;44279;-91
2021/07/24 05:24:17;;;;;;;;;;;20.50;83.20;;;;;;4331778;33;44280;-91
2021/07/24 05:26:44;;;;;;;;;;;20.50;83.30;;;;;;4343171;33;44047;-90
2021/07/24 05:29:12;;;;;;;;;;;20.50;83.40;;;;;;4331500;33;44432;-91
2021/07/24 05:31:46;;;;;;;;;;;20.50;83.40;;;;;;4331641;33;43643;-91
2021/07/24 05:34:16;;;;;;;;;;;20.50;83.20;;;;;;4330678;33;43319;-90
2021/07/24 05:36:44;;;;;;;;;;;20.50;83.40;;;;;;4331208;33;45715;-90
2021/07/24 05:39:11;;;;;;;;;;;20.40;83.20;;;;;;4331726;33;45372;-90
2021/07/24 05:41:38;;;;;;;;;;;20.40;84.10;;;;;;4330429;33;46347;-90
2021/07/24 05:44:05;;;;;;;;;;;20.40;83.30;;;;;;4330755;33;45067;-90
2021/07/24 05:46:35;;;;;;;;;;;20.40;83.40;;;;;;4342360;33;44987;-90
2021/07/24 05:49:02;;;;;;;;;;;20.40;83.50;;;;;;4330259;33;45733;-90
2021/07/24 05:51:29;;;;;;;;;;;20.40;83.50;;;;;;4330822;33;43169;-90
2021/07/24 05:53:59;;;;;;;;;;;20.40;83.60;;;;;;4330529;33;45717;-89
2021/07/24 05:56:26;;;;;;;;;;;20.40;83.80;;;;;;4330780;33;45818;-89
2021/07/24 05:58:56;;;;;;;;;;;20.40;83.90;;;;;;4330635;33;44392;-90
2021/07/24 06:01:23;;;;;;;;;;;20.40;83.90;;;;;;4342780;33;43321;-89
2021/07/24 06:03:51;;;;;;;;;;;20.40;83.90;;;;;;4330988;33;45505;-89
2021/07/24 06:06:18;;;;;;;;;;;20.40;84.00;;;;;;4329782;33;44787;-89
2021/07/24 06:08:45;;;;;;;;;;;20.40;84.00;;;;;;4342479;33;44528;-89
2021/07/24 06:11:12;;;;;;;;;;;20.40;84.10;;;;;;4329976;33;43019;-90
2021/07/24 06:13:42;;;;;;;;;;;20.40;84.20;;;;;;4330365;33;45393;-90
2021/07/24 06:16:09;;;;;;;;;;;20.40;84.30;;;;;;4331231;33;45516;-90
2021/07/24 06:18:45;;;;;;;;;;;20.40;84.30;;;;;;4330469;33;44187;-90
2021/07/24 06:21:15;;;;;;;;;;;20.40;84.40;;;;;;4329552;33;44720;-88
2021/07/24 06:23:43;;;;;;;;;;;20.40;84.50;;;;;;4342394;33;45794;-89
2021/07/24 06:26:10;;;;;;;;;;;20.40;84.50;;;;;;4329498;33;45541;-89
2021/07/24 06:28:42;;;;;;;;;;;20.40;84.60;;;;;;4330095;33;44994;-89
2021/07/24 06:31:10;;;;;;;;;;;20.40;84.60;;;;;;4330758;33;42754;-89
2021/07/24 06:33:37;;;;;;;;;;;20.40;84.60;;;;;;4329957;33;45733;-89
2021/07/24 06:36:07;;;;;;;;;;;20.40;84.80;;;;;;4329887;33;44817;-91
2021/07/24 06:38:34;;;;;;;;;;;20.40;84.90;;;;;;4341584;33;44266;-90
2021/07/24 06:41:05;;;;;;;;;;;20.40;84.90;;;;;;4329498;33;43846;-88
2021/07/24 06:43:35;;;;;;;;;;;20.40;85.10;;;;;;4329768;33;43828;-87
2021/07/24 06:46:12;;;;;;;;;;;20.40;85.00;;;;;;4341549;33;42439;-91
2021/07/24 06:48:40;;;;;;;;;;;20.40;85.10;;;;;;4330414;33;42485;-89
2021/07/24 06:51:10;;;;;;;;;;;20.40;85.20;;;;;;4341311;33;44346;-89
2021/07/24 06:53:39;;;;;;;;;;;20.40;85.30;;;;;;4329222;33;44696;-89
2021/07/24 06:56:09;;;;;;;;;;;20.30;85.20;;;;;;4329686;33;43892;-89
2021/07/24 06:58:36;;;;;;;;;;;20.30;85.30;;;;;;4331059;33;43099;-90
2021/07/24 07:01:07;;;;;;;;;;;20.30;85.30;;;;;;4329569;33;44871;-91
2021/07/24 07:03:35;;;;;;;;;;;20.30;85.40;;;;;;4329415;33;45941;-90
2021/07/24 07:06:08;;;;;;;;;;;20.30;85.60;;;;;;4341459;33;44734;-90
2021/07/24 07:08:36;;;;;;;;;;;20.30;85.70;;;;;;4342093;33;44779;-89
2021/07/24 07:11:06;;;;;;;;;;;20.30;85.70;;;;;;4340986;33;42827;-89
2021/07/24 07:13:39;;;;;;;;;;;20.40;85.90;;;;;;4329458;33;45665;-89
2021/07/24 07:16:07;;;;;;;;;;;20.40;85.90;;;;;;4329510;33;44738;-89
2021/07/24 07:18:37;;;;;;;;;;;20.40;85.90;;;;;;4330193;33;43486;-89
2021/07/24 07:21:05;;;;;;;;;;;20.30;85.80;;;;;;4328718;33;44299;-89
2021/07/24 07:23:32;;;;;;;;;;;20.30;85.80;;;;;;4329472;33;45758;-89
2021/07/24 07:26:02;;;;;;;;;;;20.40;86.00;;;;;;4341212;33;44978;-89
2021/07/24 07:28:29;;;;;;;;;;;20.40;86.00;;;;;;4330200;33;44483;-89
2021/07/24 07:30:57;;;;;;;;;;;20.40;86.00;;;;;;4328851;33;45482;-89
2021/07/24 07:33:24;;;;;;;;;;;20.40;86.00;;;;;;4341182;33;43471;-89
2021/07/24 07:35:51;;;;;;;;;;;20.40;86.00;;;;;;4330340;33;42526;-89
2021/07/24 07:38:18;;;;;;;;;;;20.40;86.20;;;;;;4329402;33;44348;-89
2021/07/24 07:40:48;;;;;;;;;;;20.40;86.30;;;;;;4341560;33;44337;-89
2021/07/24 07:43:18;;;;;;;;;;;20.40;87.10;;;;;;4341243;33;44801;-89
2021/07/24 07:45:45;;;;;;;;;;;20.40;86.40;;;;;;4340931;33;44539;-89
2021/07/24 07:48:15;;;;;;;;;;;20.40;86.40;;;;;;4341243;33;44959;-89
2021/07/24 07:50:45;;;;;;;;;;;20.40;86.50;;;;;;4328806;33;44925;-90
2021/07/24 07:53:13;;;;;;;;;;;20.40;86.60;;;;;;4328929;33;44518;-89
2021/07/24 07:55:45;;;;;;;;;;;20.40;86.60;;;;;;4340939;33;44770;-89
2021/07/24 07:58:15;;;;;;;;;;;20.40;86.70;;;;;;4332060;33;44263;-90
2021/07/24 08:00:45;;;;;;;;;;;20.40;86.90;;;;;;4332494;33;44772;-90
2021/07/24 08:03:15;;;;;;;;;;;20.40;87.00;;;;;;4344472;33;44969;-90
2021/07/24 08:05:42;;;;;;;;;;;20.40;87.20;;;;;;4332079;33;44503;-90
2021/07/24 08:08:10;;;;;;;;;;;20.40;87.40;;;;;;4344438;33;44789;-90
2021/07/24 08:10:43;;;;;;;;;;;20.40;87.30;;;;;;4344207;33;45238;-90
2021/07/24 08:13:19;;;;;;;;;;;20.40;87.40;;;;;;4332643;33;20002;-90
2021/07/24 08:15:48;;;;;;;;;;;20.40;87.50;;;;;;4332023;33;44476;-90
2021/07/24 08:18:20;;;;;;;;;;;20.40;87.50;;;;;;4343957;33;44784;-89
2021/07/24 08:20:53;;;;;;;;;;;20.40;87.60;;;;;;4331290;33;44429;-90
2021/07/24 08:23:22;;;;;;;;;;;20.40;87.80;;;;;;4332737;33;44594;-88
2021/07/24 08:25:51;;;;;;;;;;;20.40;87.80;;;;;;4332456;33;45728;-90
2021/07/24 08:28:25;;;;;;;;;;;20.40;87.90;;;;;;4343702;33;43901;-90
2021/07/24 08:30:59;;;;;;;;;;;20.40;88.10;;;;;;4331634;33;44010;-89
2021/07/24 08:33:31;;;;;;;;;;;20.40;88.20;;;;;;4332631;33;44765;-90
2021/07/24 08:35:59;;;;;;;;;;;20.40;88.30;;;;;;4331217;33;45542;-88
2021/07/24 08:38:35;;;;;;;;;;;20.40;88.20;;;;;;4343522;33;43552;-90
2021/07/24 08:41:06;;;;;;;;;;;20.40;88.20;;;;;;4331673;33;44154;-91
2021/07/24 08:43:39;;;;;;;;;;;20.40;88.30;;;;;;4331566;33;45469;-91
2021/07/24 08:46:08;;;;;;;;;;;20.40;88.30;;;;;;4332608;33;45469;-88
2021/07/24 08:48:35;;;;;;;;;;;20.50;88.50;;;;;;4343598;33;44149;-90
2021/07/24 08:51:09;;;;;;;;;;;20.50;88.50;;;;;;4332701;33;43296;-90
2021/07/24 08:53:43;;;;;;;;;;;20.40;88.40;;;;;;4331644;33;44364;-89
2021/07/24 08:56:24;;;;;;;;;;;20.40;88.50;;;;;;4343591;33;45500;-90
2021/07/24 08:59:00;;;;;;;;;;;20.50;88.50;;;;;;4331967;33;44058;-88
2021/07/24 09:01:38;;;;;;;;;;;20.50;88.50;;;;;;4343134;33;42501;-87
2021/07/24 09:04:11;;;;;;;;;;;20.50;88.70;;;;;;4332004;33;43154;-90
2021/07/24 09:06:50;;;;;;;;;;;20.40;88.60;;;;;;4342327;33;43329;-85
2021/07/24 09:09:26;;;;;;;;;;;20.40;88.70;;;;;;4331710;33;43165;-86
2021/07/24 09:12:02;;;;;;;;;;;20.40;88.70;;;;;;4332071;33;44133;-84
2021/07/24 09:14:37;;;;;;;;;;;20.40;88.80;;;;;;4330813;33;43465;-86
2021/07/24 09:17:10;;;;;;;;;;;20.40;88.70;;;;;;4342342;33;43854;-83
2021/07/24 09:19:46;;;;;;;;;;;20.40;88.70;;;;;;4330094;33;43199;-83
2021/07/24 09:22:26;;;;;;;;;;;20.30;88.70;;;;;;4331013;33;44267;-83
2021/07/24 09:25:09;;;;;;;;;;;20.30;88.80;;;;;;4342663;33;43841;-83
2021/07/24 09:27:42;;;;;;;;;;;20.30;88.90;;;;;;4330929;33;43298;-85
2021/07/24 09:30:32;;;;;;;;;;;20.30;89.00;;;;;;4330346;33;43224;-84
2021/07/24 09:33:05;;;;;;;;;;;20.20;88.90;;;;;;4330579;33;44232;-85
2021/07/24 09:35:44;;;;;;;;;;;20.30;89.00;;;;;;4342312;33;45544;-88
2021/07/24 09:38:11;;;;;;;;;;;20.20;89.00;;;;;;4342659;33;43449;-86
2021/07/24 09:40:39;;;;;;;;;;;20.20;89.00;;;;;;4342652;33;44102;-89
2021/07/24 09:43:27;;;;;;;;;;;20.30;89.00;;;;;;4331320;33;44748;-87
2021/07/24 09:46:07;;;;;;;;;;;20.30;89.00;;;;;;4342284;33;46149;-83
2021/07/24 09:48:45;;;;;;;;;;;20.30;89.00;;;;;;4342723;33;20029;-87
2021/07/24 09:51:16;;;;;;;;;;;20.30;89.10;;;;;;4331202;33;44983;-85
2021/07/24 09:53:52;;;;;;;;;;;20.30;89.20;;;;;;4331285;33;43879;-87
2021/07/24 09:56:21;;;;;;;;;;;20.30;89.20;;;;;;4330046;33;44009;-85
2021/07/24 09:58:53;;;;;;;;;;;20.30;89.30;;;;;;4341641;33;44230;-83
2021/07/24 10:01:23;;;;;;;;;;;20.30;89.40;;;;;;4331084;33;46106;-87
2021/07/24 10:04:01;;;;;;;;;;;20.40;89.40;;;;;;4330782;33;44065;-86
2021/07/24 10:06:36;;;;;;;;;;;20.40;89.50;;;;;;4342000;33;44091;-87
2021/07/24 10:09:09;;;;;;;;;;;20.40;89.60;;;;;;4329385;33;44105;-89
2021/07/24 10:11:39;;;;;;;;;;;20.40;89.50;;;;;;4330798;33;45568;-87
2021/07/24 10:14:14;;;;;;;;;;;20.40;89.50;;;;;;4330468;33;44168;-85
2021/07/24 10:16:42;;;;;;;;;;;20.40;89.60;;;;;;4341902;33;44173;-84
2021/07/24 10:19:16;;;;;;;;;;;20.40;89.50;;;;;;4342414;33;20032;-87
2021/07/24 10:21:43;;;;;;;;;;;20.50;89.70;;;;;;4329894;33;44833;-86
2021/07/24 10:24:13;;;;;;;;;;;20.50;89.80;;;;;;4329667;33;42747;-86
2021/07/24 10:27:06;;;;;;;;;;;20.50;89.80;;;;;;4330871;33;43359;-88
2021/07/24 10:29:48;;;;;;;;;;;20.50;89.80;;;;;;4329742;33;45255;-88
2021/07/24 10:32:26;;;;;;;;;;;20.50;89.90;;;;;;4341575;33;42745;-89
2021/07/24 10:34:58;;;;;;;;;;;20.50;90.00;;;;;;4330585;33;43582;-88
2021/07/24 10:37:44;;;;;;;;;;;20.50;90.00;;;;;;4330970;33;43184;-87
2021/07/24 10:40:23;;;;;;;;;;;20.50;90.00;;;;;;4330936;33;44302;-90
2021/07/24 10:42:51;;;;;;;;;;;20.50;90.00;;;;;;4342025;33;42620;-91
2021/07/24 10:45:37;;;;;;;;;;;20.50;90.10;;;;;;4330731;33;45656;-85
2021/07/24 10:48:13;;;;;;;;;;;20.50;90.10;;;;;;4330500;33;43455;-90
2021/07/24 10:50:53;;;;;;;;;;;20.50;90.30;;;;;;4341950;33;43281;-87
2021/07/24 10:53:21;;;;;;;;;;;20.40;90.50;;;;;;4330300;33;42858;-88
2021/07/24 10:55:51;;;;;;;;;;;20.40;90.60;;;;;;4330756;33;44227;-87
2021/07/24 10:58:19;;;;;;;;;;;20.30;90.70;;;;;;4329511;33;43454;-89
2021/07/24 11:00:54;;;;;;;;;;;20.30;90.90;;;;;;4330402;33;42459;-92
2021/07/24 11:03:35;;;;;;;;;;;20.20;91.00;;;;;;4341843;33;42839;-85
2021/07/24 11:06:23;;;;;;;;;;;20.20;91.00;;;;;;4318192;33;43553;-89
2021/07/24 11:09:01;;;;;;;;;;;20.20;91.00;;;;;;4330607;33;44536;-86
2021/07/24 11:11:48;;;;;;;;;;;20.20;91.10;;;;;;4341954;33;41408;-86
2021/07/24 11:14:34;;;;;;;;;;;20.20;91.20;;;;;;4341973;33;43193;-86
2021/07/24 11:17:22;;;;;;;;;;;20.20;91.30;;;;;;4341253;33;44945;-89
2021/07/24 11:19:50;;;;;;;;;;;20.20;91.30;;;;;;4331220;33;20036;-86
2021/07/24 11:22:21;;;;;;;;;;;20.20;91.40;;;;;;4329705;33;43399;-92
2021/07/24 11:24:52;;;;;;;;;;;20.20;91.40;;;;;;4317128;33;45241;-82
2021/07/24 11:27:25;;;;;;;;;;;20.20;91.40;;;;;;4330474;33;43314;-89
2021/07/24 11:29:52;;;;;;;;;;;20.20;91.40;;;;;;4330156;33;42732;-82
2021/07/24 11:32:26;;;;;;;;;;;20.20;91.50;;;;;;4331722;33;44210;-84
2021/07/24 11:35:05;;;;;;;;;;;20.20;91.50;;;;;;4333026;33;43486;-84
2021/07/24 11:37:36;;;;;;;;;;;20.20;91.60;;;;;;4332568;33;42702;-79
2021/07/24 11:40:23;;;;;;;;;;;20.20;91.60;;;;;;4332843;33;42719;-81
2021/07/24 11:43:00;;;;;;;;;;;20.30;91.70;;;;;;4332878;33;42389;-80
2021/07/24 11:45:28;;;;;;;;;;;20.30;91.70;;;;;;4343575;33;42705;-79
2021/07/24 11:48:18;;;;;;;;;;;20.30;91.70;;;;;;4344188;33;43164;-81
2021/07/24 11:50:50;;;;;;;;;;;20.20;91.80;;;;;;4333419;33;20117;-80
2021/07/24 11:53:26;;;;;;;;;;;20.20;91.90;;;;;;4332401;33;42906;-79
2021/07/24 11:55:56;;;;;;;;;;;20.20;91.90;;;;;;4332865;33;43989;-80
2021/07/24 11:58:26;;;;;;;;;;;20.20;92.00;;;;;;4332762;33;43954;-78
2021/07/24 12:00:55;;;;;;;;;;;20.20;92.10;;;;;;4331725;33;43300;-81
2021/07/24 12:03:27;;;;;;;;;;;20.20;92.10;;;;;;4343613;33;44282;-78
2021/07/24 12:06:10;;;;;;;;;;;20.20;92.20;;;;;;4343618;33;44003;-78
2021/07/24 12:08:46;;;;;;;;;;;20.20;92.20;;;;;;4319644;33;43167;-78
2021/07/24 12:11:16;;;;;;;;;;;20.20;92.30;;;;;;4331778;33;43038;-79
2021/07/24 12:13:46;;;;;;;;;;;20.20;92.30;;;;;;4332483;33;42631;-79
2021/07/24 12:16:19;;;;;;;;;;;20.20;92.30;;;;;;4332382;33;43922;-78
2021/07/24 12:18:48;;;;;;;;;;;20.20;92.30;;;;;;4343502;33;43517;-79
2021/07/24 12:21:46;;;;;;;;;;;20.20;92.40;;;;;;4343951;33;20002;-78
2021/07/24 12:24:29;;;;;;;;;;;20.20;92.40;;;;;;4331086;33;43615;-78
2021/07/24 12:27:09;;;;;;;;;;;20.30;92.50;;;;;;4332452;33;43258;-79
2021/07/24 12:29:59;;;;;;;;;;;20.20;92.50;;;;;;4330891;33;43515;-82
2021/07/24 12:32:41;;;;;;;;;;;20.20;92.60;;;;;;4332287;33;44267;-80
2021/07/24 12:35:20;;;;;;;;;;;20.20;92.70;;;;;;4331108;33;42781;-79
2021/07/24 12:38:01;;;;;;;;;;;20.20;92.70;;;;;;4332015;33;43932;-81
2021/07/24 12:40:28;;;;;;;;;;;20.20;92.80;;;;;;4332561;33;43210;-79
2021/07/24 12:43:08;;;;;;;;;;;20.20;92.80;;;;;;4318335;33;43036;-78
2021/07/24 12:45:41;;;;;;;;;;;20.20;92.80;;;;;;4332161;33;43919;-79
2021/07/24 12:48:29;;;;;;;;;;;20.20;92.80;;;;;;4332092;33;43738;-79
2021/07/24 12:51:06;;;;;;;;;;;20.30;92.90;;;;;;4331572;33;42670;-79
2021/07/24 12:53:54;;;;;;;;;;;20.30;92.90;;;;;;4331732;33;42566;-79
2021/07/24 12:56:32;;;;;;;;;;;20.30;92.90;;;;;;4331796;33;45437;-79
2021/07/24 12:59:08;;;;;;;;;;;20.40;92.90;;;;;;4331615;33;42839;-79
2021/07/24 13:01:46;;;;;;;;;;;20.40;92.90;;;;;;4330512;33;44271;-79
2021/07/24 13:04:17;;;;;;;;;;;20.40;92.90;;;;;;4331050;33;43189;-79
2021/07/24 13:06:45;;;;;;;;;;;20.50;93.00;;;;;;4330354;33;43526;-79
2021/07/24 13:09:18;;;;;;;;;;;20.50;92.90;;;;;;4331869;33;43237;-79
2021/07/24 13:11:53;;;;;;;;;;;20.50;92.90;;;;;;4330361;33;44146;-79
2021/07/24 13:14:26;;;;;;;;;;;20.50;92.90;;;;;;4331725;33;44183;-79
2021/07/24 13:16:59;;;;;;;;;;;20.50;92.90;;;;;;4342435;33;42847;-78
2021/07/24 13:19:32;;;;;;;;;;;20.50;92.90;;;;;;4331621;33;42827;-80
2021/07/24 13:22:07;;;;;;;;;;;20.60;92.90;;;;;;4332440;33;20110;-79
2021/07/24 13:24:40;;;;;;;;;;;20.60;92.90;;;;;;4331744;33;43378;-80
2021/07/24 13:30:04;;;;;;;;;;;20.60;92.90;;;;;;4331395;33;43991;-79
2021/07/24 13:32:37;;;;;;;;;;;20.60;92.90;;;;;;4331621;33;43898;-80
2021/07/24 13:35:04;;;;;;;;;;;20.60;92.90;;;;;;4342821;33;43563;-80
2021/07/24 13:37:38;;;;;;;;;;;20.70;93.00;;;;;;4341905;33;42859;-84
2021/07/24 13:40:09;;;;;;;;;;;20.60;93.10;;;;;;4342439;33;42734;-79
2021/07/24 13:42:42;;;;;;;;;;;20.60;93.10;;;;;;4341934;33;44227;-81
2021/07/24 13:45:14;;;;;;;;;;;20.60;93.10;;;;;;4331498;33;43011;-79
2021/07/24 13:47:42;;;;;;;;;;;20.60;93.20;;;;;;4331049;33;42068;-79
2021/07/24 13:50:14;;;;;;;;;;;20.60;93.20;;;;;;4330713;33;42976;-80
2021/07/24 13:52:47;;;;;;;;;;;20.60;93.30;;;;;;4343077;33;19998;-80
2021/07/24 13:55:19;;;;;;;;;;;20.60;93.30;;;;;;4330689;33;44207;-80
2021/07/24 13:57:47;;;;;;;;;;;20.60;93.40;;;;;;4330886;33;44330;-81
2021/07/24 14:00:22;;;;;;;;;;;20.60;93.40;;;;;;4330794;33;42819;-80
2021/07/24 14:02:52;;;;;;;;;;;20.60;93.30;;;;;;4331087;33;43939;-80
2021/07/24 14:05:27;;;;;;;;;;;20.60;93.30;;;;;;4330956;33;43857;-80
2021/07/24 14:08:00;;;;;;;;;;;20.70;93.30;;;;;;4330723;33;43522;-80
2021/07/24 14:10:35;;;;;;;;;;;20.70;93.20;;;;;;4342141;33;43911;-80
2021/07/24 14:13:09;;;;;;;;;;;20.70;93.20;;;;;;4330050;33;43490;-81
2021/07/24 14:15:43;;;;;;;;;;;20.70;93.20;;;;;;4330522;33;44244;-81
2021/07/24 14:18:16;;;;;;;;;;;20.70;93.20;;;;;;4330371;33;42879;-81
2021/07/24 14:20:48;;;;;;;;;;;20.70;93.20;;;;;;4330519;33;42777;-81
2021/07/24 14:23:15;;;;;;;;;;;20.70;93.20;;;;;;4330956;33;43075;-81
2021/07/24 14:25:51;;;;;;;;;;;20.80;93.20;;;;;;4317196;33;42140;-81
2021/07/24 14:28:24;;;;;;;;;;;20.80;93.60;;;;;;4330690;33;42978;-81
2021/07/24 14:31:00;;;;;;;;;;;20.80;93.30;;;;;;4341957;33;42994;-81
2021/07/24 14:33:36;;;;;;;;;;;20.80;93.30;;;;;;4341405;33;42816;-81
2021/07/24 14:36:14;;;;;;;;;;;20.80;93.30;;;;;;4330825;33;44148;-81
2021/07/24 14:38:47;;;;;;;;;;;20.80;93.20;;;;;;4329482;33;43132;-81
2021/07/24 14:41:21;;;;;;;;;;;20.80;93.20;;;;;;4341933;33;43863;-81
2021/07/24 14:44:01;;;;;;;;;;;20.80;93.20;;;;;;4330184;33;42898;-81
2021/07/24 14:46:31;;;;;;;;;;;20.80;93.30;;;;;;4330658;33;43678;-81